Hestrud (Nord, France) - 208 m
Donnes mto: Actuelle dimanche, 05/04/2020 04:16
Date Horaire Temp Out Temp. 4 Temp. E. min Temp. E. max Temp. Sol 1 Hum Out Hum. Sol 1 Press Rain Wind Dir Dir Solar Ev.Tr. UV Hi Solar Rad Dew Point Windchill Wind (Gust)
05/04/2020 04:16 1,1 C -0,6 C 1,1 C 1,1 C 0,0 C 86 % 200 cb 1020,3 hPa 0,0 mm 1,6 km/h (1 Bft) S-SE 157 0 min 0,000 mm 0,0 UV-I 0 W/m -1,0 C 1,1 C 3,2 km/h (1 Bft)
05/04/2020 03:16 1,8 C 0,0 C 1,8 C 1,8 C 0,0 C 85 % 200 cb 1020,4 hPa 0,0 mm 0,0 km/h (0 Bft) N 0 0 min 0,000 mm 0,0 UV-I 0 W/m -0,4 C 1,8 C 0,0 km/h (0 Bft)
05/04/2020 02:16 2,3 C 1,1 C 2,3 C 2,3 C 0,6 C 85 % 200 cb 1021,0 hPa 0,0 mm 0,0 km/h (0 Bft) N 0 0 min 0,000 mm 0,0 UV-I 0 W/m 0,0 C 2,3 C 0,0 km/h (0 Bft)
05/04/2020 01:16 2,2 C 1,1 C 2,2 C 2,2 C 1,1 C 85 % 200 cb 1021,2 hPa 0,0 mm 0,0 km/h (0 Bft) N 0 0 min 0,000 mm 0,0 UV-I 0 W/m -0,1 C 2,2 C 0,0 km/h (0 Bft)
05/04/2020 00:16 3,1 C 1,7 C 3,1 C 3,1 C 2,2 C 83 % 200 cb 1021,4 hPa 0,0 mm 0,0 km/h (0 Bft) N 0 0 min 0,000 mm 0,0 UV-I 0 W/m 0,5 C 3,1 C 0,0 km/h (0 Bft)
04/04/2020 23:16 4,2 C 2,2 C 4,2 C 4,2 C 3,3 C 77 % 200 cb 1021,5 hPa 0,0 mm 0,0 km/h (0 Bft) N 0 0 min 0,025 mm 0,0 UV-I 0 W/m 0,5 C 4,2 C 0,0 km/h (0 Bft)
04/04/2020 22:16 6,3 C 3,9 C 6,3 C 6,3 C 4,4 C 69 % 200 cb 1021,6 hPa 0,0 mm 0,0 km/h (0 Bft) N 0 0 min 0,025 mm 0,0 UV-I 0 W/m 1,0 C 6,3 C 0,0 km/h (0 Bft)
04/04/2020 21:16 9,4 C 5,6 C 9,4 C 9,5 C 7,2 C 58 % 200 cb 1021,7 hPa 0,0 mm 0,0 km/h (0 Bft) N 0 0 min 0,025 mm 0,0 UV-I 0 W/m 1,6 C 9,4 C 0,0 km/h (0 Bft)
04/04/2020 20:16 12,4 C 8,9 C 12,4 C 12,4 C 11,1 C 50 % 200 cb 1021,3 hPa 0,0 mm 1,6 km/h (1 Bft) S 180 0 min 0,051 mm 0,0 UV-I 7 W/m 2,3 C 12,4 C 1,6 km/h (1 Bft)
04/04/2020 19:16 14,2 C 12,8 C 14,2 C 14,2 C 12,8 C 45 % 200 cb 1021,0 hPa 0,0 mm 6,4 km/h (2 Bft) SE 135 29 min 0,152 mm 0,0 UV-I 88 W/m 2,4 C 14,2 C 11,3 km/h (2 Bft)
04/04/2020 18:16 15,1 C 15,0 C 15,1 C 15,1 C 13,3 C 44 % 200 cb 1020,9 hPa 0,0 mm 8,0 km/h (2 Bft) SO 225 60 min 0,254 mm 0,7 UV-I 274 W/m 2,9 C 14,2 C 14,5 km/h (3 Bft)
04/04/2020 17:16 15,6 C 16,7 C 15,5 C 15,6 C 13,9 C 44 % 200 cb 1021,2 hPa 0,0 mm 6,4 km/h (2 Bft) O-SO 247 60 min 0,305 mm 1,5 UV-I 439 W/m 3,4 C 15,6 C 9,7 km/h (2 Bft)
04/04/2020 16:16 15,0 C 17,8 C 15,0 C 15,0 C 14,4 C 43 % 200 cb 1021,5 hPa 0,0 mm 4,8 km/h (1 Bft) E 90 57 min 0,254 mm 2,5 UV-I 638 W/m 2,5 C 15,0 C 8,0 km/h (2 Bft)
04/04/2020 15:16 14,1 C 15,0 C 14,1 C 14,1 C 14,4 C 47 % 200 cb 1022,0 hPa 0,0 mm 3,2 km/h (1 Bft) S 180 60 min 0,330 mm 2,0 UV-I 158 W/m 3,0 C 14,1 C 4,8 km/h (1 Bft)
04/04/2020 14:16 14,6 C 20,0 C 14,6 C 14,6 C 15,6 C 47 % 200 cb 1022,5 hPa 0,0 mm 1,6 km/h (1 Bft) E-SE 112 60 min 0,279 mm 2,6 UV-I 287 W/m 3,4 C 14,6 C 4,8 km/h (1 Bft)
04/04/2020 13:16 13,7 C 24,4 C 13,7 C 13,7 C 15,0 C 51 % 200 cb 1022,8 hPa 0,0 mm 6,4 km/h (2 Bft) S-SE 157 58 min 0,330 mm 2,4 UV-I 914 W/m 3,8 C 13,7 C 11,3 km/h (2 Bft)
04/04/2020 12:16 13,1 C 20,0 C 13,1 C 13,1 C 14,4 C 51 % 200 cb 1023,2 hPa 0,0 mm 9,7 km/h (2 Bft) S 180 60 min 0,305 mm 3,1 UV-I 643 W/m 3,2 C 11,2 C 12,9 km/h (3 Bft)
04/04/2020 11:16 11,6 C 22,8 C 11,5 C 11,6 C 12,8 C 58 % 200 cb 1023,3 hPa 0,0 mm 11,3 km/h (2 Bft) O-SO 247 58 min 0,203 mm 2,4 UV-I 547 W/m 3,6 C 8,7 C 16,1 km/h (3 Bft)
04/04/2020 10:16 9,2 C 11,1 C 9,2 C 9,2 C 10,6 C 64 % 200 cb 1023,1 hPa 0,0 mm 8,0 km/h (2 Bft) S-SE 157 51 min 0,102 mm 1,5 UV-I 362 W/m 2,8 C 8,0 C 11,3 km/h (2 Bft)
04/04/2020 09:16 5,7 C 7,2 C 5,7 C 5,7 C 6,1 C 74 % 200 cb 1022,8 hPa 0,0 mm 9,7 km/h (2 Bft) S-SE 157 0 min 0,025 mm 0,6 UV-I 93 W/m 1,4 C 3,1 C 11,3 km/h (2 Bft)
04/04/2020 08:16 4,3 C 5,6 C 4,2 C 4,3 C 4,4 C 78 % 200 cb 1022,4 hPa 0,0 mm 3,2 km/h (1 Bft) SE 135 0 min 0,000 mm 0,0 UV-I 37 W/m 0,8 C 4,3 C 8,0 km/h (2 Bft)
04/04/2020 07:16 3,2 C 2,2 C 3,2 C 3,2 C 3,3 C 78 % 200 cb 1022,0 hPa 0,0 mm 0,0 km/h (0 Bft) N 0 0 min 0,000 mm 0,0 UV-I 5 W/m -0,3 C 3,2 C 0,0 km/h (0 Bft)
04/04/2020 06:16 3,6 C 2,8 C 3,6 C 3,6 C 3,3 C 78 % 200 cb 1021,6 hPa 0,0 mm 0,0 km/h (0 Bft) E-NE 67 0 min 0,025 mm 0,0 UV-I 0 W/m 0,1 C 3,6 C 1,6 km/h (1 Bft)
04/04/2020 05:16 4,2 C 2,8 C 4,2 C 4,2 C 3,9 C 76 % 200 cb 1021,6 hPa 0,0 mm 0,0 km/h (0 Bft) N 0 0 min 0,025 mm 0,0 UV-I 0 W/m 0,4 C 4,2 C 0,0 km/h (0 Bft)
04/04/2020 05:00 4,2 C 3,3 C 4,2 C 4,2 C 4,4 C 77 % 200 cb 1021,5 hPa 0,0 mm 0,0 km/h (0 Bft) N 0 0 min 0,025 mm 0,0 UV-I 0 W/m 0,5 C 4,2 C 0,0 km/h (0 Bft)
_ Min-Heure 04:13 04:02 04:13 04:15 02:52 17:40 05:00 04:08 - 05:00 - - - - - - 04:13 04:13 05:00
Minimum _ 1,1 C -0,6 C 1,1 C 1,1 C 0,0 C 41 % 200 cb 1020,3 hPa - 0,0 km/h (0 Bft) - - - - - - -1,0 C 1,1 C 0,0 km/h (0 Bft)
_ Max-Heure 17:33 13:14 17:34 17:33 14:09 01:32 05:00 10:47 05:00 10:53 - - 09:26 13:00 14:04 14:00 15:44 17:38 10:34
Maximum _ 15,7 C 26,1 C 15,7 C 15,7 C 15,6 C 87 % 200 cb 1023,3 hPa 0,0 mm 14,5 km/h
S-SE (3 Bft)
- - 1 min 0,330 mm 4,1 UV-I 956 W/m 5,2 C 15,7 C 22,5 km/h
SE (4 Bft)
Moyenne _ 8,1 C 9,0 C 8,1 C 8,1 C 7,7 C 66 % 200 cb 1021,8 hPa #0,0 mm 3,2 km/h (1 Bft) S - #0 min. #0,000 mm 0,0 UV-I 0 W/m 1,6 C 7,8 C 5,3 km/h (1 Bft)